Terminal Aerodrome Forecast
Issued by NWS

Home | Current Version | Previous Version | Text Only | Print | Product List | Glossary On
Versions: 1 2 3 4 5 6 7 8 9 10 11 12 13 14 15 16
000
FTUS45 KGJT 160526
TAFVEL
TAF
KVEL 160526Z 1606/1706 03010KT P6SM SCT100 BKN200
     FM161800 10006KT P6SM SCT100 BKN150
     FM170200 30005KT P6SM BKN150=

USA.gov is the U.S. government's official web portal to all federal, state and local government web resources and services.